createdAt,value
2018-08-13T06:58:23.149Z,1.65
2018-08-13T07:00:51.678Z,3.22
2018-08-13T07:03:20.108Z,2.12
2018-08-13T07:05:48.593Z,2.02
2018-08-13T07:08:17.058Z,3.75
2018-08-13T07:10:45.555Z,2.30
2018-08-13T18:50:57.229Z,3.90
2018-08-13T19:03:15.862Z,4.60
2018-08-13T19:05:44.417Z,4.78
2018-08-13T19:08:19.081Z,4.83
2018-08-13T19:10:48.009Z,5.53
2018-08-13T19:13:17.061Z,4.72
2018-08-13T19:15:45.593Z,5.05
2018-08-13T19:18:18.140Z,4.50
2018-08-13T19:20:51.562Z,4.58
2018-08-13T19:23:20.115Z,7.67
2018-08-13T19:25:48.902Z,4.87
2018-08-13T19:28:17.629Z,4.78
2018-08-13T19:30:52.859Z,4.60
2018-08-13T19:33:21.401Z,4.50
2018-08-13T19:35:50.483Z,4.35
2018-08-13T19:38:19.328Z,4.70
2018-08-13T19:40:52.628Z,4.80
2018-08-13T19:43:21.261Z,4.70
2018-08-13T19:45:49.834Z,4.95
2018-08-13T19:48:18.364Z,4.30
2018-08-13T19:50:47.164Z,4.17
2018-08-13T19:53:15.894Z,4.40
2018-08-13T19:55:44.477Z,4.30
2018-08-13T19:58:13.657Z,4.60
2018-08-13T20:00:42.302Z,5.50
2018-08-13T20:03:13.450Z,5.75
2018-08-13T20:05:42.551Z,4.55
2018-08-13T20:08:11.218Z,4.40
2018-08-13T20:10:39.633Z,4.75
2018-08-13T20:13:08.174Z,3.83
2018-08-13T20:15:36.684Z,4.92
2018-08-13T20:18:05.227Z,4.10
2018-08-13T20:20:33.769Z,4.28
2018-08-13T20:23:02.313Z,3.45
2018-08-13T20:25:30.973Z,3.12
2018-08-13T20:28:00.211Z,3.75
2018-08-13T20:30:28.659Z,3.50
2018-08-13T20:32:57.521Z,3.85
2018-08-13T20:35:26.053Z,3.83
2018-08-13T20:37:54.584Z,5.25
2018-08-13T20:40:23.113Z,5.25
2018-08-13T20:42:51.600Z,5.20
2018-08-13T20:45:21.156Z,5.70
2018-08-13T20:47:49.815Z,5.40
2018-08-13T20:50:23.032Z,6.17
2018-08-13T20:52:52.698Z,7.00
2018-08-13T20:55:25.367Z,7.05
2018-08-13T20:57:53.860Z,7.42
2018-08-13T21:00:23.996Z,7.08
2018-08-13T21:02:52.547Z,7.75
2018-08-13T21:05:21.040Z,7.37
2018-08-13T21:07:50.092Z,6.83
2018-08-13T21:10:20.210Z,6.80
2018-08-13T21:12:49.008Z,6.90
2018-08-13T21:15:17.548Z,7.42
2018-08-13T21:17:46.369Z,6.60
2018-08-13T21:20:22.917Z,6.40
2018-08-13T21:22:51.474Z,8.03
2018-08-13T21:25:19.993Z,9.80
2018-08-13T21:27:48.563Z,7.22
2018-08-13T21:30:17.622Z,7.45
2018-08-13T21:32:46.509Z,7.00
2018-08-13T21:35:17.085Z,7.25
2018-08-13T21:37:45.902Z,6.62
2018-08-13T21:40:14.508Z,7.05
2018-08-13T21:42:43.324Z,6.37
2018-08-13T21:45:12.460Z,6.90
2018-08-13T21:47:41.119Z,6.70
2018-08-13T21:50:13.584Z,7.47
2018-08-13T21:52:42.105Z,7.85
2018-08-13T21:55:10.880Z,8.23
2018-08-13T21:57:39.395Z,8.83
2018-08-13T22:00:15.218Z,8.60
2018-08-13T22:02:43.750Z,12.33
2018-08-13T22:05:12.250Z,12.20
2018-08-13T22:07:40.681Z,11.03
2018-08-13T22:10:09.601Z,14.23
2018-08-13T22:12:38.125Z,12.88
2018-08-13T22:15:26.501Z,14.85
2018-08-13T22:17:56.120Z,15.38
2018-08-13T22:20:25.074Z,15.93
2018-08-13T22:22:53.588Z,16.62
2018-08-13T22:25:27.161Z,16.97
2018-08-13T22:27:55.702Z,17.25
2018-08-13T22:30:24.422Z,17.17
2018-08-13T22:32:53.030Z,17.70
2018-08-13T22:35:21.520Z,17.67
2018-08-13T22:37:49.997Z,17.65
2018-08-13T22:40:19.820Z,16.90
2018-08-13T22:42:48.408Z,18.80
2018-08-13T22:45:24.789Z,18.35
2018-08-13T22:47:53.925Z,17.87
2018-08-13T22:50:22.548Z,17.07
2018-08-13T22:52:51.162Z,18.48
2018-08-13T22:55:19.885Z,16.90
2018-08-13T22:57:48.912Z,18.30
2018-08-13T23:00:18.745Z,17.12
2018-08-13T23:02:48.033Z,17.67
2018-08-13T23:05:19.769Z,18.17
2018-08-13T23:07:48.305Z,17.70
2018-08-13T23:10:19.234Z,17.62
2018-08-13T23:12:49.137Z,17.15
2018-08-13T23:15:18.624Z,18.27
2018-08-13T23:17:47.238Z,17.87
2018-08-13T23:20:20.491Z,17.48
2018-08-13T23:22:50.929Z,17.02
2018-08-13T23:25:20.120Z,18.80
2018-08-13T23:27:49.726Z,18.73
2018-08-13T23:30:18.301Z,19.87
2018-08-13T23:32:47.704Z,18.67
2018-08-13T23:35:17.620Z,17.92
2018-08-13T23:37:46.131Z,18.77
2018-08-13T23:40:14.619Z,18.75
2018-08-13T23:42:43.101Z,17.95
2018-08-13T23:45:13.232Z,19.00
2018-08-13T23:47:41.760Z,18.57
2018-08-13T23:50:12.081Z,17.85
2018-08-13T23:52:40.500Z,17.95
2018-08-13T23:55:12.530Z,17.15
2018-08-13T23:57:41.028Z,18.35
